Time;durP1;ratioP1;P1;durP2;ratioP2;P2;SDS_P1;SDS_P2;PMS_P1;PMS_P2;Temp;Humidity;BMP_temperature;BMP_pressure;BME280_temperature;BME280_humidity;BME280_pressure;Samples;Min_cycle;Max_cycle;Signal;HPM_P1;HPM_P2
2022/03/23 00:00:22;;;;;;;;;;;2.80;64.10;;;;;;5070733;28;20273;-77
2022/03/23 00:02:49;;;;;;;;;;;2.70;63.90;;;;;;5070555;28;19924;-75
2022/03/23 00:05:18;;;;;;;;;;;2.70;64.10;;;;;;5053720;28;19966;-78
2022/03/23 00:07:45;;;;;;;;;;;2.70;63.60;;;;;;5067583;28;20498;-75
2022/03/23 00:10:12;;;;;;;;;;;2.70;64.10;;;;;;5071237;28;19927;-75
2022/03/23 00:12:42;;;;;;;;;;;2.60;64.40;;;;;;5070906;28;20024;-78
2022/03/23 00:15:10;;;;;;;;;;;2.60;64.30;;;;;;5070246;28;19921;-74
2022/03/23 00:17:37;;;;;;;;;;;2.50;64.50;;;;;;5068220;28;19979;-74
2022/03/23 00:20:04;;;;;;;;;;;2.50;64.70;;;;;;5056188;28;19924;-75
2022/03/23 00:22:31;;;;;;;;;;;2.50;65.60;;;;;;5057005;28;19928;-77
2022/03/23 00:24:57;;;;;;;;;;;2.50;65.10;;;;;;5055280;28;19970;-77
2022/03/23 00:27:24;;;;;;;;;;;2.50;65.20;;;;;;5061383;28;19925;-77
2022/03/23 00:29:51;;;;;;;;;;;2.40;64.80;;;;;;5069018;28;19920;-74
2022/03/23 00:32:18;;;;;;;;;;;2.40;64.60;;;;;;5072853;28;20375;-76
2022/03/23 00:34:44;;;;;;;;;;;2.30;64.80;;;;;;5055880;28;20006;-77
2022/03/23 00:37:11;;;;;;;;;;;2.20;65.30;;;;;;5056174;28;19979;-76
2022/03/23 00:39:38;;;;;;;;;;;2.20;65.60;;;;;;5066082;28;19920;-76
2022/03/23 00:42:05;;;;;;;;;;;2.10;66.00;;;;;;5068450;28;19929;-75
2022/03/23 00:44:32;;;;;;;;;;;2.10;65.60;;;;;;5055355;28;19961;-75
2022/03/23 00:46:58;;;;;;;;;;;2.10;66.60;;;;;;5055402;28;20296;-75
2022/03/23 00:49:25;;;;;;;;;;;2.10;66.50;;;;;;5071042;28;19928;-75
2022/03/23 00:51:55;;;;;;;;;;;2.10;66.80;;;;;;5069215;28;19952;-75
2022/03/23 00:54:23;;;;;;;;;;;2.10;66.10;;;;;;5049476;28;19959;-78
2022/03/23 00:56:51;;;;;;;;;;;2.00;67.30;;;;;;5069763;28;20606;-79
2022/03/23 00:59:19;;;;;;;;;;;1.90;67.20;;;;;;5063929;28;19927;-75
2022/03/23 01:01:50;;;;;;;;;;;1.90;67.50;;;;;;5061336;28;19924;-78
2022/03/23 01:04:17;;;;;;;;;;;1.90;67.40;;;;;;5072147;28;19920;-75
2022/03/23 01:06:44;;;;;;;;;;;1.70;67.90;;;;;;5068167;28;19927;-75
2022/03/23 01:09:11;;;;;;;;;;;1.60;68.20;;;;;;5074229;28;19970;-78
2022/03/23 01:11:39;;;;;;;;;;;1.60;68.60;;;;;;5074200;28;20403;-79
2022/03/23 01:14:06;;;;;;;;;;;1.60;68.40;;;;;;5066753;28;19929;-75
2022/03/23 01:16:33;;;;;;;;;;;1.60;68.60;;;;;;5056978;28;19928;-76
2022/03/23 01:19:00;;;;;;;;;;;1.60;69.10;;;;;;5064908;28;20396;-76
2022/03/23 01:21:28;;;;;;;;;;;1.50;68.70;;;;;;5069542;28;19960;-75
2022/03/23 01:23:55;;;;;;;;;;;1.50;69.50;;;;;;5078877;28;19924;-75
2022/03/23 01:26:22;;;;;;;;;;;1.50;68.90;;;;;;5068700;28;19921;-75
2022/03/23 01:28:49;;;;;;;;;;;1.50;68.80;;;;;;5076868;28;19920;-76
2022/03/23 01:31:16;;;;;;;;;;;1.50;69.40;;;;;;5058303;28;19932;-78
2022/03/23 01:33:43;;;;;;;;;;;1.50;69.70;;;;;;5067096;28;20015;-75
2022/03/23 01:36:10;;;;;;;;;;;1.50;69.80;;;;;;5067663;28;19962;-78
2022/03/23 01:38:37;;;;;;;;;;;1.40;71.30;;;;;;5058117;28;19921;-75
2022/03/23 01:41:04;;;;;;;;;;;1.40;70.60;;;;;;5066260;28;19924;-79
2022/03/23 01:43:33;;;;;;;;;;;1.40;70.30;;;;;;5055794;28;20396;-78
2022/03/23 01:46:00;;;;;;;;;;;1.40;70.10;;;;;;5066267;28;20016;-77
2022/03/23 01:48:29;;;;;;;;;;;1.40;69.90;;;;;;5070011;28;21347;-75
2022/03/23 01:50:56;;;;;;;;;;;1.40;70.00;;;;;;5070419;28;19925;-75
2022/03/23 01:53:23;;;;;;;;;;;1.30;68.80;;;;;;5074563;28;19954;-75
2022/03/23 01:55:50;;;;;;;;;;;1.30;68.60;;;;;;5057937;28;19929;-74
2022/03/23 01:58:20;;;;;;;;;;;1.10;69.00;;;;;;5063599;28;19925;-74
2022/03/23 02:00:47;;;;;;;;;;;1.00;69.50;;;;;;5068843;28;19973;-75
2022/03/23 02:03:14;;;;;;;;;;;1.00;69.90;;;;;;5078479;28;20689;-78
2022/03/23 02:05:41;;;;;;;;;;;1.00;70.10;;;;;;5070588;28;19928;-79
2022/03/23 02:08:09;;;;;;;;;;;1.00;69.50;;;;;;5073506;28;19943;-75
2022/03/23 02:10:36;;;;;;;;;;;1.30;66.20;;;;;;5069695;28;19936;-78
2022/03/23 02:13:03;;;;;;;;;;;1.70;63.80;;;;;;5055283;28;19979;-75
2022/03/23 02:15:29;;;;;;;;;;;2.00;62.30;;;;;;5077912;28;20467;-77
2022/03/23 02:17:57;;;;;;;;;;;2.20;61.20;;;;;;5061160;28;20444;-75
2022/03/23 02:20:24;;;;;;;;;;;2.30;61.10;;;;;;5061693;28;19974;-75
2022/03/23 02:22:51;;;;;;;;;;;2.30;61.30;;;;;;5075952;28;19984;-75
2022/03/23 02:25:20;;;;;;;;;;;2.30;62.40;;;;;;5071630;28;20410;-75
2022/03/23 02:27:47;;;;;;;;;;;2.30;62.20;;;;;;5071555;28;19928;-79
2022/03/23 02:30:13;;;;;;;;;;;2.30;62.00;;;;;;5073806;28;19988;-75
2022/03/23 02:32:40;;;;;;;;;;;2.20;61.10;;;;;;5061172;28;19928;-77
2022/03/23 02:35:08;;;;;;;;;;;2.30;60.00;;;;;;5055979;28;19932;-74
2022/03/23 02:37:38;;;;;;;;;;;2.50;58.60;;;;;;5060519;28;19924;-76
2022/03/23 02:40:05;;;;;;;;;;;2.90;56.50;;;;;;5072095;28;19974;-74
2022/03/23 02:42:32;;;;;;;;;;;3.10;56.20;;;;;;5072804;28;19960;-77
2022/03/23 02:44:59;;;;;;;;;;;3.40;55.40;;;;;;5076620;28;19935;-74
2022/03/23 02:47:26;;;;;;;;;;;3.50;55.20;;;;;;5073240;28;19947;-74
2022/03/23 02:49:53;;;;;;;;;;;3.60;54.80;;;;;;5062014;28;19951;-74
2022/03/23 02:52:19;;;;;;;;;;;3.60;54.30;;;;;;5070036;28;20396;-74
2022/03/23 03:03:24;;;;;;;;;;;4.00;51.70;;;;;;5067501;28;19925;-75
2022/03/23 03:05:51;;;;;;;;;;;4.30;50.30;;;;;;5056533;28;19928;-75
2022/03/23 03:11:03;;;;;;;;;;;5.00;47.50;;;;;;5070125;28;19925;-75
2022/03/23 03:13:30;;;;;;;;;;;5.40;47.20;;;;;;5057759;28;19928;-76
2022/03/23 03:16:01;;;;;;;;;;;5.50;47.80;;;;;;5070671;28;19991;-78
2022/03/23 03:18:32;;;;;;;;;;;5.40;48.30;;;;;;5070735;28;19928;-75
2022/03/23 03:21:00;;;;;;;;;;;5.50;46.20;;;;;;5065186;28;20419;-77
2022/03/23 03:23:27;;;;;;;;;;;5.50;47.80;;;;;;5062578;28;20011;-78
2022/03/23 03:25:53;;;;;;;;;;;5.30;47.30;;;;;;5075638;28;19950;-75
2022/03/23 03:28:20;;;;;;;;;;;5.40;45.70;;;;;;5066364;28;19955;-75
2022/03/23 03:30:47;;;;;;;;;;;5.60;44.80;;;;;;5065481;28;19928;-77
2022/03/23 03:33:14;;;;;;;;;;;5.80;44.60;;;;;;5068343;28;20308;-77
2022/03/23 03:35:40;;;;;;;;;;;6.10;44.10;;;;;;5070503;28;19986;-75
2022/03/23 03:38:07;;;;;;;;;;;6.30;43.00;;;;;;5070455;28;19925;-75
2022/03/23 03:40:35;;;;;;;;;;;6.40;42.80;;;;;;5066419;28;19924;-75
2022/03/23 03:43:01;;;;;;;;;;;6.50;42.70;;;;;;5070296;28;19931;-78
2022/03/23 03:45:28;;;;;;;;;;;6.50;42.50;;;;;;5071722;28;19924;-77
2022/03/23 03:47:55;;;;;;;;;;;6.60;41.60;;;;;;5067162;28;19928;-78
2022/03/23 03:50:21;;;;;;;;;;;6.60;41.90;;;;;;5070950;28;19931;-76
2022/03/23 03:52:48;;;;;;;;;;;6.60;42.20;;;;;;5072788;28;19948;-78
2022/03/23 03:55:15;;;;;;;;;;;6.60;42.20;;;;;;5073789;28;19929;-78
2022/03/23 03:57:42;;;;;;;;;;;6.50;41.80;;;;;;5068791;28;19947;-74
2022/03/23 04:00:09;;;;;;;;;;;6.60;41.70;;;;;;5073939;28;19963;-77
2022/03/23 04:02:36;;;;;;;;;;;6.70;40.90;;;;;;5066253;28;19929;-77
2022/03/23 04:05:03;;;;;;;;;;;6.80;41.00;;;;;;5076358;28;19931;-74
2022/03/23 04:07:32;;;;;;;;;;;6.90;40.90;;;;;;5062595;28;20344;-77
2022/03/23 04:10:00;;;;;;;;;;;6.90;40.60;;;;;;5067592;28;19925;-74
2022/03/23 04:12:26;;;;;;;;;;;7.00;40.00;;;;;;5067183;28;19933;-77
2022/03/23 04:14:53;;;;;;;;;;;7.00;40.10;;;;;;5070090;28;19924;-75
2022/03/23 04:17:20;;;;;;;;;;;7.00;39.70;;;;;;5070640;28;20416;-76
2022/03/23 04:19:46;;;;;;;;;;;7.10;39.80;;;;;;5072493;28;19967;-75
2022/03/23 04:22:13;;;;;;;;;;;7.20;39.50;;;;;;5072182;28;19986;-75
2022/03/23 04:24:40;;;;;;;;;;;7.30;39.10;;;;;;5072133;28;19970;-78
2022/03/23 04:27:07;;;;;;;;;;;7.30;38.90;;;;;;5069281;28;19974;-77
2022/03/23 04:29:33;;;;;;;;;;;7.30;39.10;;;;;;5071832;28;19955;-77
2022/03/23 04:32:00;;;;;;;;;;;7.40;38.80;;;;;;5071305;28;20392;-75
2022/03/23 04:34:27;;;;;;;;;;;7.40;38.70;;;;;;5067817;28;19932;-74
2022/03/23 04:36:54;;;;;;;;;;;7.50;38.30;;;;;;5055217;28;19963;-77
2022/03/23 04:39:20;;;;;;;;;;;7.60;38.00;;;;;;5066566;28;19929;-78
2022/03/23 04:41:47;;;;;;;;;;;7.50;38.60;;;;;;5069439;28;20442;-75
2022/03/23 04:44:14;;;;;;;;;;;7.50;38.60;;;;;;5060383;28;19932;-77
2022/03/23 04:46:41;;;;;;;;;;;7.40;39.00;;;;;;5070801;28;19929;-75
2022/03/23 04:49:08;;;;;;;;;;;7.40;38.50;;;;;;5068828;28;19967;-74
2022/03/23 04:51:36;;;;;;;;;;;7.50;38.60;;;;;;5069538;28;19938;-75
2022/03/23 04:54:03;;;;;;;;;;;7.50;38.10;;;;;;5077120;28;19932;-78
2022/03/23 04:56:29;;;;;;;;;;;7.50;38.40;;;;;;5076855;28;19993;-75
2022/03/23 04:58:57;;;;;;;;;;;7.50;38.60;;;;;;5074330;28;19956;-76
2022/03/23 05:01:23;;;;;;;;;;;7.50;38.10;;;;;;5059552;28;19925;-78
2022/03/23 05:03:52;;;;;;;;;;;7.60;37.70;;;;;;5060284;28;19928;-75
2022/03/23 05:06:19;;;;;;;;;;;7.70;37.30;;;;;;5065198;28;19975;-77
2022/03/23 05:08:46;;;;;;;;;;;7.80;37.20;;;;;;5065441;28;19932;-75
2022/03/23 05:11:12;;;;;;;;;;;7.70;37.40;;;;;;5064028;28;19925;-75
2022/03/23 05:13:40;;;;;;;;;;;7.80;37.40;;;;;;5060375;28;19976;-77
2022/03/23 05:16:07;;;;;;;;;;;7.80;37.20;;;;;;5055024;28;19947;-78
2022/03/23 05:18:34;;;;;;;;;;;7.80;37.20;;;;;;5072471;28;19947;-78
2022/03/23 05:21:01;;;;;;;;;;;7.80;37.00;;;;;;5060799;28;19961;-77
2022/03/23 05:23:28;;;;;;;;;;;7.90;36.50;;;;;;5057585;28;19975;-75
2022/03/23 05:25:55;;;;;;;;;;;7.90;36.70;;;;;;5059640;28;19928;-75
2022/03/23 05:28:26;;;;;;;;;;;7.90;36.60;;;;;;5065268;28;20007;-75
2022/03/23 05:30:53;;;;;;;;;;;7.90;36.30;;;;;;5071860;28;19924;-77
2022/03/23 05:33:20;;;;;;;;;;;8.00;36.30;;;;;;5067518;28;19929;-78
2022/03/23 05:35:46;;;;;;;;;;;8.10;36.20;;;;;;5069780;28;19931;-79
2022/03/23 05:38:13;;;;;;;;;;;8.20;36.20;;;;;;5054383;28;19952;-77
2022/03/23 05:40:40;;;;;;;;;;;8.20;35.80;;;;;;5068589;28;20355;-78
2022/03/23 05:43:07;;;;;;;;;;;8.30;35.40;;;;;;5073778;28;19924;-78
2022/03/23 05:45:35;;;;;;;;;;;8.30;36.00;;;;;;5077808;28;19982;-76
2022/03/23 05:48:02;;;;;;;;;;;8.30;35.40;;;;;;5064066;28;19925;-75
2022/03/23 05:50:29;;;;;;;;;;;8.30;35.50;;;;;;5080223;28;19971;-76
2022/03/23 05:52:56;;;;;;;;;;;8.30;35.80;;;;;;5078505;28;19924;-78
2022/03/23 05:55:23;;;;;;;;;;;8.30;35.50;;;;;;5071023;28;19925;-78
2022/03/23 05:57:49;;;;;;;;;;;8.30;35.40;;;;;;5064411;28;19929;-77
2022/03/23 06:00:16;;;;;;;;;;;8.40;35.00;;;;;;5072626;28;19924;-74
2022/03/23 06:02:47;;;;;;;;;;;8.40;35.20;;;;;;5069716;28;19925;-75
2022/03/23 06:05:13;;;;;;;;;;;8.40;35.50;;;;;;5072635;28;19983;-77
2022/03/23 06:07:40;;;;;;;;;;;8.30;35.50;;;;;;5071007;28;19987;-75
2022/03/23 06:10:07;;;;;;;;;;;8.30;35.60;;;;;;5068022;28;19955;-75
2022/03/23 06:12:34;;;;;;;;;;;8.30;35.40;;;;;;5080336;28;19929;-78
2022/03/23 06:15:01;;;;;;;;;;;8.40;35.20;;;;;;5078735;28;19970;-77
2022/03/23 06:17:28;;;;;;;;;;;8.30;35.40;;;;;;5067317;28;20392;-75
2022/03/23 06:19:55;;;;;;;;;;;8.30;35.40;;;;;;5078076;28;19974;-77
2022/03/23 06:22:22;;;;;;;;;;;8.30;35.30;;;;;;5059954;28;19925;-75
2022/03/23 06:24:52;;;;;;;;;;;8.30;35.60;;;;;;5078442;28;20403;-77
2022/03/23 06:27:19;;;;;;;;;;;8.30;35.90;;;;;;5070836;28;20304;-75
2022/03/23 06:29:46;;;;;;;;;;;8.30;35.40;;;;;;5070309;28;19981;-77
2022/03/23 06:32:13;;;;;;;;;;;8.40;35.30;;;;;;5059363;28;19925;-77
2022/03/23 06:34:41;;;;;;;;;;;8.40;35.50;;;;;;5076141;28;19928;-76
2022/03/23 06:37:08;;;;;;;;;;;8.40;35.00;;;;;;5069541;28;19924;-76
2022/03/23 06:39:35;;;;;;;;;;;8.50;35.20;;;;;;5070539;28;19932;-77
2022/03/23 06:42:02;;;;;;;;;;;8.50;35.50;;;;;;5059399;28;20415;-77
2022/03/23 06:44:28;;;;;;;;;;;8.40;35.80;;;;;;5063264;28;20396;-77
2022/03/23 06:46:55;;;;;;;;;;;8.40;35.70;;;;;;5072559;28;19985;-75
2022/03/23 06:49:22;;;;;;;;;;;8.50;35.50;;;;;;5064645;28;19925;-77
2022/03/23 06:51:49;;;;;;;;;;;8.50;35.20;;;;;;5067231;28;19925;-77
2022/03/23 06:54:17;;;;;;;;;;;8.60;35.50;;;;;;5071327;28;20351;-77
2022/03/23 06:56:44;;;;;;;;;;;8.60;35.20;;;;;;5071622;28;20461;-77
2022/03/23 06:59:10;;;;;;;;;;;8.60;35.10;;;;;;5063953;28;19985;-77
2022/03/23 07:01:37;;;;;;;;;;;8.60;35.30;;;;;;5063605;28;19932;-77
2022/03/23 07:04:04;;;;;;;;;;;8.60;35.60;;;;;;5056538;28;20388;-77
2022/03/23 07:06:31;;;;;;;;;;;8.70;35.00;;;;;;5069201;28;20403;-77
2022/03/23 07:11:43;;;;;;;;;;;8.80;35.50;;;;;;5057655;28;19979;-77
2022/03/23 07:14:10;;;;;;;;;;;8.80;35.20;;;;;;5055879;28;19929;-77
2022/03/23 07:16:36;;;;;;;;;;;8.90;34.80;;;;;;5068287;28;20348;-75
2022/03/23 07:19:04;;;;;;;;;;;9.00;35.00;;;;;;5066123;28;19931;-78
2022/03/23 07:21:32;;;;;;;;;;;9.10;34.90;;;;;;5070687;28;20388;-74
2022/03/23 07:23:59;;;;;;;;;;;9.20;34.60;;;;;;5072960;28;19929;-74
2022/03/23 07:26:25;;;;;;;;;;;9.30;34.00;;;;;;5059480;28;19928;-77
2022/03/23 07:28:52;;;;;;;;;;;9.50;33.70;;;;;;5076414;28;19974;-77
2022/03/23 07:31:19;;;;;;;;;;;9.50;34.20;;;;;;5070937;28;20029;-77
2022/03/23 07:33:46;;;;;;;;;;;9.70;34.10;;;;;;5070396;28;19928;-77
2022/03/23 07:36:12;;;;;;;;;;;9.80;33.80;;;;;;5059094;28;19932;-77
2022/03/23 07:38:40;;;;;;;;;;;9.90;34.00;;;;;;5068462;28;19976;-77
2022/03/23 07:41:06;;;;;;;;;;;10.00;33.60;;;;;;5073748;28;19924;-77
2022/03/23 07:43:33;;;;;;;;;;;10.10;33.30;;;;;;5068191;28;19925;-75
2022/03/23 07:46:00;;;;;;;;;;;10.30;33.30;;;;;;5091478;28;19928;-78
2022/03/23 07:48:27;;;;;;;;;;;10.40;32.50;;;;;;5076446;28;20110;-78
2022/03/23 07:50:54;;;;;;;;;;;10.50;32.70;;;;;;5075672;28;19924;-81
2022/03/23 07:53:21;;;;;;;;;;;10.50;32.80;;;;;;5071636;28;19946;-76
2022/03/23 07:55:48;;;;;;;;;;;10.70;32.10;;;;;;5071097;28;20536;-77
2022/03/23 07:58:14;;;;;;;;;;;10.70;32.10;;;;;;5073106;28;20388;-77
2022/03/23 08:00:42;;;;;;;;;;;10.80;32.30;;;;;;5069295;28;20483;-78
2022/03/23 08:03:13;;;;;;;;;;;11.00;31.80;;;;;;5059476;28;19947;-77
2022/03/23 08:05:40;;;;;;;;;;;11.10;31.60;;;;;;5063044;28;19945;-78
2022/03/23 08:08:10;;;;;;;;;;;11.20;31.30;;;;;;5065499;28;19958;-77
2022/03/23 08:10:37;;;;;;;;;;;11.40;31.40;;;;;;5068981;28;19947;-77
2022/03/23 08:13:04;;;;;;;;;;;11.50;32.40;;;;;;5066852;28;19924;-77
2022/03/23 08:15:30;;;;;;;;;;;11.70;30.40;;;;;;5062548;28;19974;-78
2022/03/23 08:17:58;;;;;;;;;;;11.80;30.60;;;;;;5070242;28;19931;-77
2022/03/23 08:20:33;;;;;;;;;;;12.00;30.00;;;;;;5069295;28;19959;-78
2022/03/23 08:23:10;;;;;;;;;;;12.10;30.00;;;;;;5064648;28;19978;-77
2022/03/23 08:25:38;;;;;;;;;;;12.30;30.20;;;;;;5064885;28;19924;-78
2022/03/23 08:28:08;;;;;;;;;;;12.40;30.10;;;;;;5065900;28;19925;-78
2022/03/23 08:30:34;;;;;;;;;;;12.60;30.00;;;;;;5067632;28;19931;-77
2022/03/23 08:33:02;;;;;;;;;;;12.70;29.60;;;;;;5068977;28;19974;-77
2022/03/23 08:35:34;;;;;;;;;;;12.90;29.80;;;;;;5068863;28;19925;-76
2022/03/23 08:38:00;;;;;;;;;;;13.00;29.30;;;;;;5070809;28;19955;-77
2022/03/23 08:40:28;;;;;;;;;;;13.10;28.90;;;;;;5064157;28;20398;-76
2022/03/23 08:42:55;;;;;;;;;;;13.30;28.70;;;;;;5069777;28;19932;-77
2022/03/23 08:45:22;;;;;;;;;;;13.40;29.50;;;;;;5071273;28;20274;-77
2022/03/23 08:47:49;;;;;;;;;;;13.60;30.40;;;;;;5065055;28;19963;-78
2022/03/23 08:50:16;;;;;;;;;;;13.70;28.60;;;;;;5062536;28;19978;-77
2022/03/23 08:52:43;;;;;;;;;;;13.80;28.00;;;;;;5068055;28;19925;-78
2022/03/23 08:55:14;;;;;;;;;;;13.90;28.30;;;;;;5069026;28;20371;-77
2022/03/23 08:57:42;;;;;;;;;;;14.10;28.60;;;;;;5068716;28;20379;-78
2022/03/23 09:00:09;;;;;;;;;;;14.30;29.10;;;;;;5067884;28;19975;-77
2022/03/23 09:02:36;;;;;;;;;;;14.50;28.00;;;;;;5059577;28;19925;-76
2022/03/23 09:05:03;;;;;;;;;;;14.60;26.90;;;;;;5062003;28;19975;-76
2022/03/23 09:07:32;;;;;;;;;;;14.70;27.10;;;;;;5064876;28;19928;-78
2022/03/23 09:10:00;;;;;;;;;;;14.50;26.20;;;;;;5060872;28;19925;-77
2022/03/23 09:12:27;;;;;;;;;;;14.60;25.40;;;;;;5064310;28;20300;-76
2022/03/23 09:14:53;;;;;;;;;;;14.50;26.20;;;;;;5060512;28;19946;-79
2022/03/23 09:17:25;;;;;;;;;;;14.70;26.40;;;;;;5074807;28;19925;-77
2022/03/23 09:19:52;;;;;;;;;;;14.50;26.30;;;;;;5059169;28;19928;-78
2022/03/23 09:22:20;;;;;;;;;;;14.70;27.40;;;;;;5084262;28;19924;-76
2022/03/23 09:24:46;;;;;;;;;;;14.90;26.50;;;;;;5065463;28;19924;-76
2022/03/23 09:27:14;;;;;;;;;;;15.00;26.10;;;;;;5076325;28;19939;-78
2022/03/23 09:29:41;;;;;;;;;;;14.90;25.70;;;;;;5073111;28;19947;-77
2022/03/23 09:32:10;;;;;;;;;;;15.00;26.70;;;;;;5066872;28;19974;-78
2022/03/23 09:34:37;;;;;;;;;;;15.20;25.80;;;;;;5078364;28;20420;-78
2022/03/23 09:39:49;;;;;;;;;;;15.40;25.80;;;;;;5072956;28;19925;-76
2022/03/23 09:42:19;;;;;;;;;;;15.60;25.00;;;;;;5067326;28;19929;-75
2022/03/23 09:44:46;;;;;;;;;;;15.80;24.50;;;;;;5068576;28;19974;-77
2022/03/23 09:47:12;;;;;;;;;;;15.80;26.10;;;;;;5066847;28;19925;-78
2022/03/23 09:49:39;;;;;;;;;;;15.80;25.80;;;;;;5078464;28;19924;-77
2022/03/23 09:52:06;;;;;;;;;;;15.90;25.30;;;;;;5062659;28;19940;-76
2022/03/23 09:54:33;;;;;;;;;;;16.10;25.80;;;;;;5067814;28;20023;-79
2022/03/23 09:57:00;;;;;;;;;;;16.30;25.10;;;;;;5071283;28;19925;-77
2022/03/23 09:59:26;;;;;;;;;;;16.10;24.00;;;;;;5074991;28;19977;-77
2022/03/23 10:02:02;;;;;;;;;;;16.10;24.50;;;;;;5070145;28;20006;-77
2022/03/23 10:04:52;;;;;;;;;;;16.20;24.00;;;;;;5077587;28;20119;-76
2022/03/23 10:07:22;;;;;;;;;;;16.30;25.60;;;;;;5060562;28;19928;-77
2022/03/23 10:09:49;;;;;;;;;;;16.60;25.80;;;;;;5061153;28;20297;-79
2022/03/23 10:12:39;;;;;;;;;;;16.60;24.30;;;;;;5072848;28;19929;-77
2022/03/23 10:15:24;;;;;;;;;;;16.70;23.50;;;;;;5060608;28;19932;-79
2022/03/23 10:18:26;;;;;;;;;;;16.80;24.40;;;;;;5075869;28;19981;-77
2022/03/23 10:20:53;;;;;;;;;;;17.10;25.30;;;;;;5068926;28;19993;-77
2022/03/23 10:23:23;;;;;;;;;;;17.40;23.90;;;;;;5077056;28;19934;-79
2022/03/23 10:25:50;;;;;;;;;;;17.50;23.80;;;;;;5080612;28;19979;-77
2022/03/23 10:28:17;;;;;;;;;;;17.50;23.50;;;;;;5075045;28;20335;-78
2022/03/23 10:30:45;;;;;;;;;;;17.50;23.30;;;;;;5081745;28;19924;-78
2022/03/23 10:33:16;;;;;;;;;;;17.60;24.10;;;;;;5075531;28;19929;-79
2022/03/23 10:35:43;;;;;;;;;;;17.30;22.60;;;;;;5061411;28;20451;-77
2022/03/23 10:38:28;;;;;;;;;;;17.50;24.50;;;;;;5081304;28;20404;-80
2022/03/23 10:40:56;;;;;;;;;;;17.60;24.50;;;;;;5070238;28;19940;-79
2022/03/23 10:43:34;;;;;;;;;;;17.60;24.50;;;;;;5071659;28;19929;-78
2022/03/23 10:46:08;;;;;;;;;;;17.50;23.80;;;;;;5075555;28;19935;-79
2022/03/23 10:48:35;;;;;;;;;;;17.70;23.60;;;;;;5078191;28;19924;-78
2022/03/23 10:51:03;;;;;;;;;;;17.90;24.20;;;;;;5051098;28;19925;-77
2022/03/23 10:53:34;;;;;;;;;;;18.00;23.00;;;;;;5068270;28;19929;-79
2022/03/23 10:56:01;;;;;;;;;;;18.20;24.90;;;;;;5071343;28;19912;-77
2022/03/23 10:58:28;;;;;;;;;;;18.40;24.10;;;;;;5063784;28;19974;-77
2022/03/23 11:00:59;;;;;;;;;;;18.40;23.90;;;;;;5071057;28;20343;-79
2022/03/23 11:03:34;;;;;;;;;;;18.50;23.50;;;;;;5065710;28;19931;-76
2022/03/23 11:06:01;;;;;;;;;;;18.50;23.60;;;;;;5078734;28;20023;-78
2022/03/23 11:08:28;;;;;;;;;;;18.50;23.50;;;;;;5057455;28;19925;-79
2022/03/23 11:16:52;;;;;;;;;;;18.40;24.00;;;;;;5044659;28;19924;-79
2022/03/23 11:19:19;;;;;;;;;;;18.20;23.30;;;;;;5064626;28;19974;-77
2022/03/23 11:22:01;;;;;;;;;;;18.20;24.70;;;;;;5061486;28;19999;-79
2022/03/23 11:24:30;;;;;;;;;;;18.30;23.80;;;;;;5063910;28;19924;-79
2022/03/23 11:26:57;;;;;;;;;;;18.40;23.90;;;;;;5067510;28;19925;-79
2022/03/23 11:29:24;;;;;;;;;;;18.50;24.00;;;;;;5054097;28;19970;-78
2022/03/23 11:31:55;;;;;;;11.55;9.85;;;18.50;23.00;;;;;;5067213;28;20348;-77
2022/03/23 11:34:22;;;;;;;;;;;18.70;24.80;;;;;;5073190;28;20072;-77
2022/03/23 11:36:51;;;;;;;;;;;18.60;23.90;;;;;;5086414;28;20426;-79
2022/03/23 11:39:22;;;;;;;;;;;18.50;24.40;;;;;;5060497;28;19925;-79
2022/03/23 11:41:51;;;;;;;;;;;18.30;24.30;;;;;;5062325;28;19920;-78
2022/03/23 11:44:19;;;;;;;;;;;18.40;24.50;;;;;;5064134;28;19963;-77
2022/03/23 11:46:46;;;;;;;;;;;18.40;24.20;;;;;;5067812;28;19920;-79
2022/03/23 11:49:32;;;;;;;;;;;18.50;24.10;;;;;;5062800;28;19920;-77
2022/03/23 11:52:04;;;;;;;;;;;18.60;23.40;;;;;;5092073;28;20346;-79
2022/03/23 11:57:54;;;;;;;;;;;18.70;23.00;;;;;;5050589;28;19931;-79
2022/03/23 12:00:21;;;;;;;;;;;18.90;23.70;;;;;;5055792;28;19929;-77
2022/03/23 12:02:56;;;;;;;;;;;19.10;24.70;;;;;;5063420;28;19920;-77
2022/03/23 12:05:26;;;;;;;;;;;19.30;23.40;;;;;;5060948;28;19943;-76
2022/03/23 12:07:54;;;;;;;;;;;19.40;23.60;;;;;;5070687;28;19927;-76
2022/03/23 12:10:21;;;;;;;;;;;19.50;23.90;;;;;;5057019;28;19928;-77
2022/03/23 12:12:48;;;;;;;;;;;19.50;23.30;;;;;;5076739;28;19924;-77
2022/03/23 12:15:17;;;;;;;;;;;19.60;22.40;;;;;;5074275;28;19924;-79
2022/03/23 12:17:57;;;;;;;;;;;19.70;22.60;;;;;;5077617;28;19920;-76
2022/03/23 12:20:28;;;;;;;;;;;19.80;23.70;;;;;;5081090;28;19921;-76
2022/03/23 12:23:06;;;;;;;;;;;20.00;22.80;;;;;;5060663;28;20023;-78
2022/03/23 12:25:38;;;;;;;;;;;19.90;22.10;;;;;;5072900;28;19921;-77
2022/03/23 12:28:18;;;;;;;;;;;19.90;22.60;;;;;;5070866;28;19904;-77
2022/03/23 12:30:57;;;;;;;;;;;20.00;23.30;;;;;;5066398;28;19936;-78
2022/03/23 12:33:28;;;;;;;;;;;20.00;21.90;;;;;;5074486;28;19928;-77
2022/03/23 12:36:04;;;;;;;;;;;20.10;21.80;;;;;;5076419;28;19928;-78
2022/03/23 12:38:32;;;;;;;;;;;20.10;21.60;;;;;;5074280;28;19935;-77
2022/03/23 12:41:09;;;;;;;;;;;20.20;21.20;;;;;;5070908;28;19946;-78
2022/03/23 12:43:39;;;;;;;;;;;20.10;21.90;;;;;;5063889;28;19928;-79
2022/03/23 12:46:22;;;;;;;;;;;20.20;21.30;;;;;;5064153;28;19973;-77
2022/03/23 13:00:26;;;;;;;10.07;6.93;;;20.60;21.50;;;;;;5074273;28;19927;-78
2022/03/23 13:03:19;;;;;;;8.70;6.75;;;20.80;20.90;;;;;;5065474;28;20685;-78
2022/03/23 13:05:57;;;;;;;8.57;6.55;;;21.00;20.60;;;;;;5070954;28;20064;-78
2022/03/23 13:08:27;;;;;;;8.20;7.40;;;21.20;19.80;;;;;;5057128;28;20424;-78
2022/03/23 13:11:03;;;;;;;7.18;6.47;;;21.30;20.50;;;;;;5072142;28;20523;-78
2022/03/23 13:13:33;;;;;;;6.93;5.00;;;21.20;20.20;;;;;;5072490;28;20064;-78
2022/03/23 13:16:01;;;;;;;6.50;5.78;;;21.40;20.30;;;;;;5067602;28;20060;-79
2022/03/23 13:18:31;;;;;;;6.93;5.43;;;21.50;19.50;;;;;;5070497;28;20063;-78
2022/03/23 13:20:59;;;;;;;7.60;5.15;;;21.60;19.00;;;;;;5070290;28;20531;-77
2022/03/23 13:23:33;;;;;;;6.00;5.25;;;21.60;18.90;;;;;;5068355;28;20060;-78
2022/03/23 13:26:07;;;;;;;4.65;4.25;;;21.60;19.00;;;;;;5072527;28;20107;-79
2022/03/23 13:28:42;;;;;;;8.27;6.45;;;21.60;18.90;;;;;;5075891;28;20037;-78
2022/03/23 13:31:12;;;;;;;6.65;6.05;;;21.80;19.80;;;;;;5077760;28;20075;-77
2022/03/23 13:33:40;;;;;;;5.53;4.78;;;21.70;19.80;;;;;;5072705;28;20480;-78
2022/03/23 13:36:09;;;;;;;7.38;4.85;;;21.40;18.40;;;;;;5082401;28;20052;-79
2022/03/23 13:38:41;;;;;;;6.60;4.70;;;21.20;19.40;;;;;;5069270;28;20053;-78
2022/03/23 13:43:56;;;;;;;5.15;4.22;;;21.50;19.20;;;;;;5063853;28;20472;-78
2022/03/23 13:46:24;;;;;;;5.60;4.80;;;21.60;18.80;;;;;;5077361;28;20083;-78
2022/03/23 13:49:07;;;;;;;5.22;4.63;;;21.70;18.50;;;;;;5070829;28;20416;-79
2022/03/23 13:51:53;;;;;;;4.80;4.40;;;22.00;18.80;;;;;;5061459;28;20061;-79
2022/03/23 13:54:23;;;;;;;4.57;4.15;;;22.10;18.80;;;;;;5064809;28;20500;-77
2022/03/23 13:56:50;;;;;;;6.25;4.10;;;22.30;19.00;;;;;;5067973;28;20462;-77
2022/03/23 13:59:18;;;;;;;5.95;4.28;;;22.40;18.80;;;;;;5076100;28;20060;-78
2022/03/23 14:01:50;;;;;;;6.22;4.28;;;22.50;18.70;;;;;;5071371;28;20110;-78
2022/03/23 14:04:18;;;;;;;4.50;4.10;;;22.60;18.40;;;;;;5087688;28;20056;-78
2022/03/23 14:06:46;;;;;;;5.00;4.50;;;22.70;18.40;;;;;;5076038;28;20052;-78
2022/03/23 14:09:23;;;;;;;7.10;4.28;;;22.70;17.30;;;;;;5073137;28;20044;-78
2022/03/23 14:14:23;;;;;;;5.93;4.20;;;22.50;18.20;;;;;;5068848;28;20114;-78
2022/03/23 14:16:59;;;;;;;4.63;3.65;;;22.20;17.80;;;;;;5071981;28;20056;-79
2022/03/23 14:19:28;;;;;;;4.55;4.10;;;21.90;17.80;;;;;;5075230;28;20061;-78
2022/03/23 14:22:00;;;;;;;4.93;3.63;;;22.10;18.10;;;;;;5066962;28;20110;-78
2022/03/23 14:24:31;;;;;;;6.07;4.00;;;22.30;18.70;;;;;;5071910;28;20040;-79
2022/03/23 14:27:14;;;;;;;3.45;3.15;;;22.40;17.30;;;;;;5061014;28;20099;-79
2022/03/23 14:30:04;;;;;;;4.85;3.25;;;21.90;17.50;;;;;;5082143;28;20106;-78
2022/03/23 14:32:57;;;;;;;5.40;3.78;;;21.80;17.70;;;;;;5072611;28;20060;-76
2022/03/23 14:35:38;;;;;;;5.30;3.80;;;21.50;17.80;;;;;;5048846;28;20110;-78
2022/03/23 14:38:16;;;;;;;5.15;4.07;;;21.60;18.50;;;;;;5074519;28;20713;-78
2022/03/23 14:40:49;;;;;;;3.85;3.28;;;21.90;18.20;;;;;;5075632;28;20057;-78
2022/03/23 14:43:35;;;;;;;4.30;3.63;;;21.70;17.10;;;;;;5068159;28;20159;-78
2022/03/23 14:46:21;;;;;;;6.72;3.42;;;21.60;17.60;;;;;;5064058;28;20060;-80
2022/03/23 14:49:00;;;;;;;3.75;3.30;;;21.80;18.70;;;;;;5070987;28;20053;-79
2022/03/23 14:51:27;;;;;;;4.00;3.65;;;21.90;17.80;;;;;;5072176;28;20138;-79
2022/03/23 14:53:55;;;;;;;4.68;3.70;;;22.10;17.80;;;;;;5068003;28;20415;-77
2022/03/23 14:56:22;;;;;;;4.95;3.50;;;22.60;17.80;;;;;;5072933;28;20080;-80
2022/03/23 14:58:48;;;;;;;5.45;4.00;;;22.80;17.10;;;;;;5065148;28;20094;-78
2022/03/23 15:01:16;;;;;;;5.28;3.83;;;22.70;17.20;;;;;;5063242;28;20052;-78